Time;durP1;ratioP1;P1;durP2;ratioP2;P2;SDS_P1;SDS_P2;PMS_P1;PMS_P2;Temp;Humidity;BMP_temperature;BMP_pressure;BME280_temperature;BME280_humidity;BME280_pressure;Samples;Min_cycle;Max_cycle;Signal;HPM_P1;HPM_P2
2023/04/25 00:06:02;;;;;;;;;;;;;;;8.47;83.30;100833.59;20801311;28;20023;-54
2023/04/25 00:16:24;;;;;;;;;;;;;;;8.29;82.72;100844.31;20800656;28;19999;-55
2023/04/25 00:26:45;;;;;;;;;;;;;;;8.21;81.96;100846.16;20802974;28;19939;-55
2023/04/25 00:37:06;;;;;;;;;;;;;;;8.15;82.04;100854.00;20796260;28;19982;-53
2023/04/25 00:47:28;;;;;;;;;;;;;;;8.11;82.40;100849.81;20795298;28;19946;-53
2023/04/25 00:57:52;;;;;;;;;;;;;;;8.05;81.84;100857.63;20788707;28;21562;-55
2023/04/25 01:08:13;;;;;;;;;;;;;;;8.05;79.75;100855.06;20798223;28;20365;-55
2023/04/25 01:18:36;;;;;;;;;;;;;;;8.05;80.37;100870.53;20792868;28;19929;-53
2023/04/25 01:28:57;;;;;;;;;;;;;;;8.04;80.20;100881.69;20791976;28;19936;-54
2023/04/25 01:39:19;;;;;;;;;;;;;;;7.99;79.73;100889.53;20778688;28;19929;-55
2023/04/25 01:49:40;;;;;;;;;;;;;;;7.91;80.16;100893.97;20798725;28;20355;-55
2023/04/25 02:00:03;;;;;;;;;;;;;;;7.87;79.77;100894.06;20790187;28;19971;-54
2023/04/25 02:10:25;;;;;;;;;;;;;;;7.79;79.49;100901.06;20808587;28;19932;-53
2023/04/25 02:20:46;;;;;;;;;;;;;;;7.76;79.50;100904.56;20810374;28;19929;-56
2023/04/25 02:31:08;;;;;;;;;;;;;;;7.75;78.90;100925.16;20808962;28;19940;-53
2023/04/25 02:41:29;;;;;;;;;;;;;;;7.70;77.58;100921.81;20808598;28;19983;-54
2023/04/25 02:51:50;;;;;;;;;;;;;;;7.66;78.21;100922.75;20795656;28;20269;-54
2023/04/25 03:02:12;;;;;;;;;;;;;;;7.65;77.35;100913.34;20793493;28;19981;-55
2023/04/25 03:12:33;;;;;;;;;;;;;;;7.55;77.38;100904.91;20792590;28;19925;-55
2023/04/25 03:22:55;;;;;;;;;;;;;;;7.49;77.17;100906.75;20796262;28;19932;-55
2023/04/25 03:33:16;;;;;;;;;;;;;;;7.39;77.34;100916.31;20804718;28;20007;-55
2023/04/25 03:43:37;;;;;;;;;;;;;;;7.37;75.19;100919.78;20799793;28;19929;-55
2023/04/25 03:53:59;;;;;;;;;;;;;;;7.31;76.45;100949.03;20798576;28;20347;-55
2023/04/25 04:04:20;;;;;;;;;;;;;;;7.30;75.07;100967.94;20803741;28;19925;-55
2023/04/25 04:14:42;;;;;;;;;;;;;;;7.27;74.09;100969.72;20804250;28;19929;-56
2023/04/25 04:25:05;;;;;;;;;;;;;;;7.17;73.70;100986.13;20797560;28;20106;-56
2023/04/25 04:35:27;;;;;;;;;;;;;;;7.16;73.87;100992.16;20796110;28;19979;-55
2023/04/25 04:45:49;;;;;;;;;;;;;;;7.13;75.02;101011.06;20797507;28;19936;-55
2023/04/25 04:56:11;;;;;;;;;;;;;;;7.09;75.49;101015.41;20800868;28;20360;-56
2023/04/25 05:06:32;;;;;;;;;;;;;;;7.05;75.03;101025.72;20802340;28;19925;-55
2023/04/25 05:16:54;;;;;;;;;;;;;;;7.03;75.46;101030.06;20798490;28;19925;-55
2023/04/25 05:27:17;;;;;;;;;;;;;;;7.05;75.20;101036.88;20787359;28;19968;-53
2023/04/25 05:37:38;;;;;;;;;;;;;;;7.14;75.77;101049.63;20795370;28;20328;-55
2023/04/25 05:47:59;;;;;;;;;;;;;;;7.37;74.40;101059.63;20808294;28;19929;-53
2023/04/25 05:58:21;;;;;;;;;;;;;;;7.56;73.17;101068.81;20806449;28;19929;-55
2023/04/25 06:08:42;;;;;;;;;;;;;;;7.65;73.16;101083.28;20805678;28;19929;-55
2023/04/25 06:19:04;;;;;;;;;;;;;;;7.82;72.42;101081.34;20811265;28;19929;-53
2023/04/25 06:29:25;;;;;;;;;;;;;;;7.97;72.85;101102.53;20810811;28;19952;-55
2023/04/25 06:39:47;;;;;;;;;;;;;;;7.93;72.83;101089.72;20801314;28;19925;-55
2023/04/25 06:50:08;;;;;;;;;;;;;;;8.04;72.71;101092.97;20816032;28;20439;-54
2023/04/25 07:00:30;;;;;;;;;;;;;;;8.23;71.50;101093.56;20806693;28;20043;-53
2023/04/25 07:10:52;;;;;;;;;;;;;;;8.46;70.52;101100.06;20807805;28;19932;-54
2023/04/25 07:21:13;;;;;;;;;;;;;;;8.62;70.99;101104.09;20804485;28;20430;-56
2023/04/25 07:31:35;;;;;;;;;;;;;;;8.68;67.56;101119.44;20810346;28;19979;-55
2023/04/25 07:41:58;;;;;;;;;;;;;;;8.56;69.13;101142.88;20797974;28;19925;-55
2023/04/25 07:52:19;;;;;;;;;;;;;;;8.35;70.43;101165.59;20802588;28;20353;-56
2023/04/25 08:02:41;;;;;;;;;;;;;;;7.87;73.54;101180.81;20804767;28;19929;-55
2023/04/25 08:13:02;;;;;;;;;;;;;;;7.89;72.87;101191.97;20789439;28;19925;-54
2023/04/25 08:23:24;;;;;;;;;;;;;;;8.20;72.02;101192.41;20802702;28;19925;-53
2023/04/25 08:33:45;;;;;;;;;;;;;;;8.79;69.19;101200.09;20803473;28;19975;-55
2023/04/25 08:44:09;;;;;;;;;;;;;;;8.14;73.30;101254.34;20792127;28;20364;-55
2023/04/25 08:54:31;;;;;;;;;;;;;;;7.62;75.39;101248.13;20795724;28;20328;-53
2023/04/25 09:04:57;;;;;;;;;;;;;;;7.81;80.16;101254.78;20798278;28;19929;-55
2023/04/25 09:15:19;;;;;;;;;;;;;;;8.15;77.57;101254.31;20795869;28;19929;-55
2023/04/25 09:25:43;;;;;;;;;;;;;;;8.97;73.69;101261.69;20769788;28;19925;-54
2023/04/25 09:36:06;;;;;;;;;;;;;;;8.84;72.08;101319.56;20793551;28;19925;-54
2023/04/25 09:46:33;;;;;;;;;;;;;;;8.05;75.94;101331.78;20788076;28;19933;-55
2023/04/25 09:56:55;;;;;;;;;;;;;;;7.84;75.39;101332.00;20798505;28;19951;-54
2023/04/25 10:07:16;;;;;;;;;;;;;;;8.19;74.65;101319.56;20793472;28;19979;-54
2023/04/25 10:17:38;;;;;;;;;;;;;;;8.71;70.91;101330.94;20794167;28;20421;-54
2023/04/25 10:28:03;;;;;;;;;;;;;;;9.39;71.20;101313.50;20799930;28;19991;-55
2023/04/25 10:38:25;;;;;;;;;;;;;;;9.84;66.02;101321.28;20809335;28;19925;-54
2023/04/25 10:48:48;;;;;;;;;;;;;;;9.38;71.95;101330.72;20810013;28;19933;-54
2023/04/25 10:59:16;;;;;;;;;;;;;;;9.71;67.92;101324.09;20808606;28;20016;-54
2023/04/25 11:09:38;;;;;;;;;;;;;;;10.49;64.70;101309.63;20803066;28;20288;-55
2023/04/25 11:20:00;;;;;;;;;;;;;;;11.03;60.06;101325.59;20804423;28;20035;-53
2023/04/25 11:30:22;;;;;;;;;;;;;;;11.19;58.62;101339.06;20804860;28;19975;-56
2023/04/25 11:40:43;;;;;;;;;;;;;;;10.15;60.39;101357.75;20799907;28;19933;-56
2023/04/25 11:51:05;;;;;;;;;;;;;;;10.76;64.65;101358.19;20802888;28;19931;-54
2023/04/25 12:01:27;;;;;;;;;;;;;;;11.62;59.74;101369.03;20800816;28;19979;-55
2023/04/25 12:11:55;;;;;;;;;;;;;;;12.00;60.41;101339.53;20796378;28;19929;-55
2023/04/25 12:22:21;;;;;;;;;;;;;;;11.62;58.97;101373.38;20801641;28;19925;-56
2023/04/25 12:32:43;;;;;;;;;;;;;;;11.09;55.33;101396.25;20810430;28;19983;-56
2023/04/25 12:43:04;;;;;;;;;;;;;;;11.52;58.98;101382.28;20800209;28;20396;-56
2023/04/25 12:53:26;;;;;;;;;;;;;;;11.76;56.41;101394.63;20800715;28;19933;-55
2023/04/25 13:03:48;;;;;;;;;;;;;;;11.54;57.42;101391.69;20801417;28;19925;-56
2023/04/25 13:14:09;;;;;;;;;;;;;;;11.54;58.15;101406.38;20776649;28;19933;-56
2023/04/25 13:24:31;;;;;;;;;;;;;;;11.68;58.09;101417.31;20799907;28;19925;-56
2023/04/25 13:34:53;;;;;;;;;;;;;;;12.38;58.39;101393.78;20776175;28;19980;-56
2023/04/25 13:45:14;;;;;;;;;;;;;;;12.92;56.19;101405.16;20794733;28;19979;-54
2023/04/25 13:55:36;;;;;;;;;;;;;;;12.84;53.47;101429.66;20797616;28;19971;-56
2023/04/25 14:05:58;;;;;;;;;;;;;;;12.87;57.77;101420.00;20796434;28;19929;-56
2023/04/25 14:16:19;;;;;;;;;;;;;;;12.99;58.63;101418.81;20810116;28;19933;-55
2023/04/25 14:26:42;;;;;;;;;;;;;;;12.66;56.30;101440.56;20812160;28;19967;-55
2023/04/25 14:37:03;;;;;;;;;;;;;;;12.13;58.52;101460.22;20808182;28;19973;-54
2023/04/25 14:47:25;;;;;;;;;;;;;;;11.98;55.49;101460.59;20809767;28;19932;-54
2023/04/25 14:57:47;;;;;;;;;;;;;;;11.90;57.20;101458.22;20804675;28;19979;-53
2023/04/25 15:08:08;;;;;;;;;;;;;;;12.09;53.08;101471.56;20802439;28;19983;-53
2023/04/25 15:18:30;;;;;;;;;;;;;;;12.47;54.88;101476.56;20803859;28;20013;-56
2023/04/25 15:28:52;;;;;;;;;;;;;;;12.45;49.90;101483.59;20799894;28;19980;-54
2023/04/25 15:39:13;;;;;;;;;;;;;;;11.69;57.48;101499.38;20782770;28;19925;-54
2023/04/25 15:49:35;;;;;;;;;;;;;;;11.42;58.21;101513.81;20801126;28;19971;-56
2023/04/25 15:59:56;;;;;;;;;;;;;;;11.33;58.71;101533.88;20803004;28;19987;-56
2023/04/25 16:10:21;;;;;;;;;;;;;;;10.73;62.36;101539.41;20798634;28;19932;-56
2023/04/25 16:20:42;;;;;;;;;;;;;;;10.83;61.23;101533.19;20800066;28;19998;-54
2023/04/25 16:31:04;;;;;;;;;;;;;;;11.44;58.99;101518.94;20789790;28;19929;-53
2023/04/25 16:41:26;;;;;;;;;;;;;;;10.92;57.20;101524.38;20802417;28;19960;-54
2023/04/25 16:51:48;;;;;;;;;;;;;;;10.59;55.17;101536.25;20804924;28;19931;-55
2023/04/25 17:02:11;;;;;;;;;;;;;;;10.45;60.38;101543.41;20798634;28;19979;-56
2023/04/25 17:12:33;;;;;;;;;;;;;;;10.70;61.86;101549.84;20785643;28;19971;-55
2023/04/25 17:22:55;;;;;;;;;;;;;;;10.84;61.81;101563.38;20778173;28;19932;-55
2023/04/25 17:33:17;;;;;;;;;;;;;;;10.42;65.08;101579.66;20799456;28;20217;-55
2023/04/25 17:43:38;;;;;;;;;;;;;;;10.15;64.99;101585.31;20807761;28;19971;-56
2023/04/25 17:54:00;;;;;;;;;;;;;;;10.02;64.59;101596.69;20782790;28;19929;-57
2023/04/25 18:04:21;;;;;;;;;;;;;;;9.82;64.22;101607.34;20795696;28;19925;-55
2023/04/25 18:14:44;;;;;;;;;;;;;;;9.59;63.38;101624.03;20794530;28;19982;-57
2023/04/25 18:25:08;;;;;;;;;;;;;;;9.32;64.12;101630.38;20796685;28;19926;-55
2023/04/25 18:35:29;;;;;;;;;;;;;;;9.22;65.13;101654.63;20801223;28;20384;-57
2023/04/25 18:45:51;;;;;;;;;;;;;;;8.98;66.62;101649.72;20776877;28;20306;-57
2023/04/25 18:56:13;;;;;;;;;;;;;;;8.92;66.78;101671.28;20802517;28;19995;-54
2023/04/25 19:06:35;;;;;;;;;;;;;;;8.76;66.89;101687.78;20805626;28;20411;-54
2023/04/25 19:16:58;;;;;;;;;;;;;;;8.68;66.89;101692.16;20801854;28;19926;-55
2023/04/25 19:27:19;;;;;;;;;;;;;;;8.55;67.88;101706.00;20812389;28;20420;-57
2023/04/25 19:37:44;;;;;;;;;;;;;;;8.37;67.37;101706.13;20790624;28;20339;-55
2023/04/25 19:48:09;;;;;;;;;;;;;;;8.28;67.19;101711.38;20803765;28;19955;-55
2023/04/25 19:58:31;;;;;;;;;;;;;;;8.11;67.85;101723.47;20784746;28;20387;-56
2023/04/25 20:08:52;;;;;;;;;;;;;;;7.94;68.18;101722.72;20789383;28;20377;-56
2023/04/25 20:19:14;;;;;;;;;;;;;;;7.83;68.28;101732.19;20796191;28;19925;-53
2023/04/25 20:29:36;;;;;;;;;;;;;;;7.68;69.76;101737.41;20802900;28;19929;-53
2023/04/25 20:40:02;;;;;;;;;;;;;;;7.57;70.09;101723.72;20797002;28;19933;-54
2023/04/25 20:50:24;;;;;;;;;;;;;;;7.57;68.84;101734.00;20800628;28;19928;-55
2023/04/25 21:00:46;;;;;;;;;;;;;;;7.59;70.16;101742.59;20807289;28;19929;-55
2023/04/25 21:11:08;;;;;;;;;;;;;;;7.47;71.80;101745.22;20780154;28;19925;-55
2023/04/25 21:21:31;;;;;;;;;;;;;;;7.29;72.46;101753.81;20799341;28;19929;-56
2023/04/25 21:31:52;;;;;;;;;;;;;;;7.18;72.18;101740.09;20793517;28;19932;-55
2023/04/25 21:42:13;;;;;;;;;;;;;;;7.12;71.17;101740.13;20780385;28;20016;-55
2023/04/25 21:52:36;;;;;;;;;;;;;;;7.09;73.15;101741.00;20802913;28;19929;-55
2023/04/25 22:02:58;;;;;;;;;;;;;;;7.00;72.33;101746.16;20787044;28;19937;-55
2023/04/25 22:13:21;;;;;;;;;;;;;;;6.92;72.64;101765.03;20790524;28;19933;-55
2023/04/25 22:23:42;;;;;;;;;;;;;;;6.89;73.57;101755.59;20780177;28;19926;-55
2023/04/25 22:34:04;;;;;;;;;;;;;;;6.83;72.90;101758.16;20804917;28;19952;-55
2023/04/25 22:44:26;;;;;;;;;;;;;;;6.76;72.79;101761.56;20805476;28;20416;-56
2023/04/25 22:54:47;;;;;;;;;;;;;;;6.70;73.82;101768.44;20810527;28;19929;-55
2023/04/25 23:05:09;;;;;;;;;;;;;;;6.53;74.18;101772.69;20806479;28;19925;-54
2023/04/25 23:15:31;;;;;;;;;;;;;;;6.50;73.72;101778.69;20802598;28;19933;-56
2023/04/25 23:25:52;;;;;;;;;;;;;;;6.52;73.98;101779.53;20805202;28;19932;-54
2023/04/25 23:36:20;;;;;;;;;;;;;;;6.49;74.35;101800.13;20805339;28;19929;-55
2023/04/25 23:46:42;;;;;;;;;;;;;;;6.44;74.41;101788.97;20809743;28;20312;-56
2023/04/25 23:57:03;;;;;;;;;;;;;;;6.36;74.24;101800.94;20793772;28;19925;-55
